Time;durP1;ratioP1;P1;durP2;ratioP2;P2;SDS_P1;SDS_P2;PMS_P1;PMS_P2;Temp;Humidity;BMP_temperature;BMP_pressure;BME280_temperature;BME280_humidity;BME280_pressure;Samples;Min_cycle;Max_cycle;Signal;HPM_P1;HPM_P2
2022/05/15 00:01:23;;;;;;;;;8.00;7.00;;;;;22.66;34.63;101244.97;5040556;28;45815;-57
2022/05/15 00:03:48;;;;;;;;;8.00;7.00;;;;;22.66;35.09;101244.09;5038929;28;45322;-57
2022/05/15 00:06:14;;;;;;;;;9.50;7.00;;;;;22.63;34.54;101233.72;5038106;28;45315;-57
2022/05/15 00:08:40;;;;;;;;;8.00;8.00;;;;;22.65;34.62;101231.84;5039078;28;45325;-58
2022/05/15 00:11:07;;;;;;;;;8.00;8.00;;;;;22.66;34.65;101233.53;5045831;28;45383;-57
2022/05/15 00:13:33;;;;;;;;;8.75;7.25;;;;;22.65;35.12;101230.06;5057526;28;44730;-58
2022/05/15 00:15:59;;;;;;;;;8.25;8.00;;;;;22.64;35.21;101225.72;5046638;28;45714;-58
2022/05/15 00:18:25;;;;;;;;;9.00;8.00;;;;;22.65;34.80;101224.75;5048338;28;45377;-58
2022/05/15 00:20:50;;;;;;;;;7.75;6.75;;;;;22.65;34.80;101221.28;5043410;28;45355;-57
2022/05/15 00:23:17;;;;;;;;;7.50;7.50;;;;;22.65;34.88;101221.28;5041791;28;45301;-57
2022/05/15 00:25:43;;;;;;;;;8.75;6.75;;;;;22.64;34.92;101215.13;5039941;28;45462;-57
2022/05/15 00:28:10;;;;;;;;;6.00;6.00;;;;;22.63;34.86;101213.44;5037038;28;46655;-57
2022/05/15 00:30:36;;;;;;;;;6.25;6.25;;;;;22.61;34.67;101206.53;5036683;28;45955;-58
2022/05/15 00:33:03;;;;;;;;;7.00;5.75;;;;;22.61;34.98;101212.66;5037369;28;45331;-58
2022/05/15 00:35:29;;;;;;;;;8.00;8.00;;;;;22.59;34.71;101206.66;5044274;28;45245;-56
2022/05/15 00:37:55;;;;;;;;;10.00;6.00;;;;;22.59;35.18;101208.41;5060388;28;45760;-57
2022/05/15 00:40:22;;;;;;;;;5.25;5.25;;;;;22.59;35.01;101208.41;5042786;28;45393;-57
2022/05/15 00:42:48;;;;;;;;;7.00;6.00;;;;;22.58;34.76;101212.88;5037806;28;45437;-57
2022/05/15 00:45:17;;;;;;;;;5.75;5.75;;;;;22.59;34.80;101205.78;5037182;28;45485;-57
2022/05/15 00:47:42;;;;;;;;;8.75;8.00;;;;;22.57;35.14;101208.53;5036161;28;46635;-58
2022/05/15 00:50:13;;;;;;;;;7.25;7.25;;;;;22.57;34.98;101208.53;5035855;28;45457;-57
2022/05/15 00:52:43;;;;;;;;;8.25;7.00;;;;;22.58;35.02;101206.72;5036454;28;45466;-57
2022/05/15 00:55:42;;;;;;;;;7.00;6.25;;;;;22.55;34.87;101190.09;5037114;28;45344;-56
2022/05/15 00:58:17;;;;;;;;;5.25;5.25;;;;;22.57;35.02;101191.81;5018273;28;46239;-57
2022/05/15 01:00:42;;;;;;;;;7.75;6.25;;;;;22.57;35.26;101186.53;5036798;28;45340;-57
2022/05/15 01:03:17;;;;;;;;;5.00;4.25;;;;;22.55;35.08;101184.81;5017887;28;45481;-57
2022/05/15 01:05:49;;;;;;;;;5.75;5.75;;;;;22.55;34.97;101184.81;5036592;28;45554;-59
2022/05/15 01:08:14;;;;;;;;;6.25;6.25;;;;;22.54;34.90;101177.81;5036479;28;46356;-58
2022/05/15 01:10:50;;;;;;;;;5.50;5.50;;;;;22.54;35.04;101188.41;5040694;28;45217;-58
2022/05/15 01:13:19;;;;;;;;;5.00;5.00;;;;;22.53;35.22;101181.44;5041588;28;45179;-57
2022/05/15 01:15:46;;;;;;;;;9.00;8.00;;;;;22.53;34.93;101176.16;5038813;28;45462;-58
2022/05/15 01:18:11;;;;;;;;;5.00;5.00;;;;;22.51;35.16;101174.53;5036402;28;46673;-57
2022/05/15 01:20:39;;;;;;;;;7.25;7.25;;;;;22.52;35.28;101174.44;5041471;28;45480;-58
2022/05/15 01:23:04;;;;;;;;;7.50;7.50;;;;;22.51;35.20;101174.53;5047872;28;45316;-58
2022/05/15 01:25:33;;;;;;;;;6.00;5.50;;;;;22.50;35.09;101172.81;5040525;28;45325;-58
2022/05/15 01:28:09;;;;;;;;;5.25;3.00;;;;;22.51;35.27;101172.75;5036375;28;47638;-58
2022/05/15 01:30:36;;;;;;;;;7.50;5.75;;;;;22.50;35.46;101173.69;5036014;28;45392;-57
2022/05/15 01:33:03;;;;;;;;;6.00;6.00;;;;;22.51;35.30;101172.75;5036361;28;45360;-58
2022/05/15 01:35:28;;;;;;;;;5.25;5.25;;;;;22.50;35.10;101173.69;5036668;28;45218;-58
2022/05/15 01:37:54;;;;;;;;;6.25;5.25;;;;;22.49;35.26;101171.97;5036453;28;45407;-57
2022/05/15 01:40:19;;;;;;;;;5.00;4.00;;;;;22.49;35.38;101165.88;5036379;28;45224;-58
2022/05/15 01:42:44;;;;;;;;;7.50;6.25;;;;;22.49;35.18;101161.41;5036678;28;45292;-58
2022/05/15 01:45:12;;;;;;;;;5.00;5.00;;;;;22.50;35.60;101159.59;5036581;28;45540;-56
2022/05/15 01:47:38;;;;;;;;;6.50;6.00;;;;;22.48;35.38;101157.06;5037486;28;46558;-57
2022/05/15 01:50:03;;;;;;;;;5.50;5.00;;;;;22.49;35.26;101152.66;5046601;28;45800;-58
2022/05/15 01:52:29;;;;;;;;;6.50;6.00;;;;;22.49;35.26;101148.22;5047265;28;45367;-57
2022/05/15 01:54:54;;;;;;;;;5.75;5.00;;;;;22.48;35.41;101150.94;5046738;28;45322;-57
2022/05/15 01:57:21;;;;;;;;;6.00;5.00;;;;;22.48;35.35;101151.78;5041666;28;45469;-57
2022/05/15 01:59:47;;;;;;;;;9.75;6.75;;;;;22.48;35.34;101151.78;5038266;28;45777;-57
2022/05/15 02:02:12;;;;;;;;;6.00;5.00;;;;;22.47;35.37;101152.72;5045436;28;45335;-56
2022/05/15 02:04:38;;;;;;;;;5.00;4.75;;;;;22.47;35.41;101152.72;5045165;28;45261;-57
2022/05/15 02:07:04;;;;;;;;;5.00;5.00;;;;;22.48;35.30;101146.50;5043004;28;45817;-58
2022/05/15 02:09:29;;;;;;;;;4.00;4.00;;;;;22.48;35.34;101141.22;5039387;28;45363;-58
2022/05/15 02:11:55;;;;;;;;;6.25;5.75;;;;;22.49;35.50;101144.72;5039292;28;45367;-59
2022/05/15 02:14:21;;;;;;;;;6.75;5.75;;;;;22.48;35.03;101129.81;5039073;28;45403;-58
2022/05/15 02:16:46;;;;;;;;;6.75;5.00;;;;;22.47;35.42;101131.59;5038961;28;45968;-57
2022/05/15 02:19:11;;;;;;;;;6.75;5.75;;;;;22.47;35.44;101123.66;5039501;28;45622;-57
2022/05/15 02:21:37;;;;;;;;;5.25;5.25;;;;;22.48;35.43;101124.53;5039382;28;45376;-58
2022/05/15 02:24:02;;;;;;;;;7.00;5.50;;;;;22.47;35.50;101120.19;5041674;28;45481;-57
2022/05/15 02:26:29;;;;;;;;;4.00;4.00;;;;;22.45;35.11;101120.25;5042833;28;46340;-58
2022/05/15 02:28:54;;;;;;;;;5.50;5.50;;;;;22.47;35.81;101112.28;5050737;28;45273;-56
2022/05/15 02:31:19;;;;;;;;;4.50;4.50;;;;;22.45;35.32;101114.16;5066512;28;45278;-56
2022/05/15 02:33:45;;;;;;;;;5.00;5.00;;;;;22.45;35.79;101114.97;5062341;28;44858;-58
2022/05/15 02:36:10;;;;;;;;;4.50;4.50;;;;;22.44;35.84;101118.56;5064310;28;45980;-58
2022/05/15 02:38:37;;;;;;;;;3.50;3.50;;;;;22.45;35.60;101119.44;5053797;28;45348;-58
2022/05/15 02:41:03;;;;;;;;;4.50;4.25;;;;;22.44;35.69;101118.56;5042759;28;45276;-58
2022/05/15 02:43:28;;;;;;;;;6.00;4.75;;;;;22.45;35.46;101122.06;5042297;28;45410;-58
2022/05/15 02:45:55;;;;;;;;;4.00;4.00;;;;;22.45;35.32;101116.78;5040267;28;45943;-58
2022/05/15 02:51:05;;;;;;;;;4.75;4.50;;;;;22.39;35.72;101120.59;5042418;28;45403;-59
2022/05/15 02:53:44;;;;;;;;;7.00;4.00;;;;;22.37;35.65;101122.47;5045550;28;45538;-58
2022/05/15 02:56:30;;;;;;;;;7.00;6.00;;;;;22.35;35.76;101125.22;5046177;28;45586;-58
2022/05/15 02:58:55;;;;;;;;;4.25;4.00;;;;;22.33;35.94;101126.22;5050333;28;45245;-58
2022/05/15 03:01:20;;;;;;;;;5.00;5.00;;;;;22.34;35.81;101130.56;5049654;28;45307;-58
2022/05/15 03:03:46;;;;;;;;;6.75;5.00;;;;;22.33;35.55;101127.09;5050910;28;44886;-58
2022/05/15 03:06:12;;;;;;;;;5.25;5.25;;;;;22.34;35.56;101127.94;5049947;28;45399;-58
2022/05/15 03:08:41;;;;;;;;;6.50;5.50;;;;;22.33;35.50;101120.94;5046996;28;45080;-58
2022/05/15 03:11:07;;;;;;;;;6.75;5.75;;;;;22.35;35.77;101121.72;5050044;28;45345;-58
2022/05/15 03:13:32;;;;;;;;;6.00;4.00;;;;;22.34;35.96;101114.72;5049465;28;45668;-58
2022/05/15 03:15:58;;;;;;;;;4.00;4.00;;;;;22.34;35.77;101117.38;5046818;28;46054;-59
2022/05/15 03:18:23;;;;;;;;;6.00;5.00;;;;;22.32;35.71;101114.84;5047112;28;45291;-59
2022/05/15 03:20:49;;;;;;;;;4.00;4.00;;;;;22.31;35.92;101107.00;5047149;28;45463;-59
2022/05/15 03:23:14;;;;;;;;;9.25;5.00;;;;;22.30;35.87;101103.50;5049875;28;45488;-58
2022/05/15 03:25:41;;;;;;;;;6.50;4.00;;;;;22.29;35.67;101109.72;5058284;28;45100;-59
2022/05/15 03:28:09;;;;;;;;;4.75;4.00;;;;;22.28;35.84;101096.63;5062492;28;45827;-59
2022/05/15 03:30:40;;;;;;;;;5.25;5.25;;;;;22.30;35.58;101100.03;5063960;28;44910;-58
2022/05/15 03:33:08;;;;;;;;;5.25;4.00;;;;;22.30;35.75;101092.09;5061953;28;45363;-58
2022/05/15 03:35:34;;;;;;;;;5.00;5.00;;;;;22.31;35.69;101091.16;5057675;28;45492;-58
2022/05/15 03:38:00;;;;;;;;;5.00;5.00;;;;;22.31;35.70;101099.09;5057009;28;45348;-58
2022/05/15 03:40:25;;;;;;;;;5.00;5.00;;;;;22.29;35.76;101090.41;5031356;28;45365;-58
2022/05/15 03:42:51;;;;;;;;;4.50;4.50;;;;;22.30;35.58;101094.75;5048003;28;45992;-57
2022/05/15 03:45:16;;;;;;;;;4.00;4.00;;;;;22.31;35.92;101092.00;5054205;28;46482;-58
2022/05/15 03:47:50;;;;;;;;;4.75;4.25;;;;;22.30;35.75;101086.81;5044629;28;45637;-58
2022/05/15 03:50:17;;;;;;;;;6.00;4.00;;;;;22.28;35.75;101080.78;5045112;28;45240;-59
2022/05/15 03:52:42;;;;;;;;;4.00;4.00;;;;;22.27;35.71;101077.28;5047399;28;45719;-58
2022/05/15 03:55:08;;;;;;;;;4.50;4.50;;;;;22.29;35.90;101082.47;5040286;28;46448;-58
2022/05/15 03:57:34;;;;;;;;;4.00;4.00;;;;;22.32;35.89;101079.66;5039104;28;46051;-59
2022/05/15 03:59:59;;;;;;;;;5.00;5.00;;;;;22.30;35.87;101068.34;5039891;28;45388;-58
2022/05/15 04:02:25;;;;;;;;;2.25;2.25;;;;;22.32;35.80;101074.38;5041078;28;45292;-58
2022/05/15 04:04:50;;;;;;;;;5.00;5.00;;;;;22.31;35.79;101072.69;5041161;28;45552;-58
2022/05/15 04:07:16;;;;;;;;;3.00;3.00;;;;;22.30;35.75;101069.19;5040041;28;45386;-58
2022/05/15 04:09:44;;;;;;;;;3.75;3.75;;;;;22.30;35.79;101070.97;5038637;28;45346;-58
2022/05/15 04:12:12;;;;;;;;;5.25;5.00;;;;;22.29;35.79;101072.75;5038691;28;45572;-59
2022/05/15 04:14:38;;;;;;;;;5.00;5.00;;;;;22.29;35.82;101083.31;5039442;28;45371;-58
2022/05/15 04:17:05;;;;;;;;;7.00;5.50;;;;;22.24;35.60;101080.94;5038479;28;45412;-58
2022/05/15 04:19:31;;;;;;;;;4.25;4.25;;;;;22.23;35.92;101088.97;5038736;28;45399;-58
2022/05/15 04:22:02;;;;;;;;;4.25;4.00;;;;;22.21;35.89;101086.41;5037895;28;45380;-57
2022/05/15 04:24:28;;;;;;;;;4.75;4.75;;;;;22.20;35.86;101079.47;5037275;28;47310;-58
2022/05/15 04:26:53;;;;;;;;;5.00;3.75;;;;;22.21;35.80;101075.00;5037752;28;45455;-58
2022/05/15 04:29:19;;;;;;;;;8.25;6.00;;;;;22.22;35.49;101074.91;5041337;28;45761;-57
2022/05/15 04:31:44;;;;;;;;;5.00;4.75;;;;;22.19;35.86;101066.31;5047477;28;45626;-58
2022/05/15 04:34:10;;;;;;;;;4.75;4.75;;;;;22.19;36.09;101061.03;5041655;28;46346;-57
2022/05/15 04:36:36;;;;;;;;;2.00;2.00;;;;;22.21;35.80;101067.94;5043085;28;45241;-59
2022/05/15 04:39:02;;;;;;;;;3.00;3.00;;;;;22.23;35.87;101062.56;5043501;28;45441;-58
2022/05/15 04:41:28;;;;;;;;;5.00;5.00;;;;;22.19;35.75;101056.63;5041207;28;45601;-57
2022/05/15 04:43:53;;;;;;;;;4.00;4.00;;;;;22.19;35.73;101066.31;5038189;28;46392;-59
2022/05/15 04:46:19;;;;;;;;;5.00;5.00;;;;;22.18;35.62;101062.84;5041048;28;45316;-59
2022/05/15 04:48:44;;;;;;;;;4.00;4.00;;;;;22.16;35.88;101062.09;5039830;28;45405;-57
2022/05/15 04:51:09;;;;;;;;;4.75;4.75;;;;;22.16;35.93;101067.34;5043797;28;45390;-61
2022/05/15 04:53:35;;;;;;;;;5.00;4.00;;;;;22.14;35.95;101063.97;5044553;28;45468;-57
2022/05/15 04:56:01;;;;;;;;;4.00;4.00;;;;;22.17;35.91;101078.75;5043318;28;45956;-58
2022/05/15 04:58:27;;;;;;;;;3.00;3.00;;;;;22.19;35.82;101074.25;5025564;28;45289;-58
2022/05/15 05:00:53;;;;;;;;;4.00;3.00;;;;;22.21;36.08;101080.28;5044400;28;45424;-58
2022/05/15 05:03:19;;;;;;;;;5.00;5.00;;;;;22.21;35.81;101078.47;5042206;28;45440;-57
2022/05/15 05:05:45;;;;;;;;;4.75;4.75;;;;;22.20;36.05;101089.16;5042174;28;45467;-57
2022/05/15 05:08:12;;;;;;;;;4.50;4.50;;;;;22.21;35.62;101090.84;5045231;28;45415;-58
2022/05/15 05:10:38;;;;;;;;;4.00;4.00;;;;;22.18;35.61;101089.25;5047736;28;45648;-58
2022/05/15 05:13:04;;;;;;;;;6.25;4.75;;;;;22.19;35.96;101085.66;5046039;28;48710;-57
2022/05/15 05:15:29;;;;;;;;;4.75;4.00;;;;;22.21;36.06;101080.28;5044078;28;45408;-58
2022/05/15 05:17:56;;;;;;;;;5.50;3.50;;;;;22.20;35.79;101090.00;5045297;28;45226;-59
2022/05/15 05:20:22;;;;;;;;;4.00;4.00;;;;;22.20;35.83;101082.09;5051401;28;45253;-59
2022/05/15 05:22:47;;;;;;;;;4.00;4.00;;;;;22.19;35.84;101088.31;5042638;28;46375;-57
2022/05/15 05:25:13;;;;;;;;;5.75;3.75;;;;;22.21;35.70;101088.22;5039983;28;47025;-58
2022/05/15 05:27:41;;;;;;;;;5.00;3.75;;;;;22.21;35.87;101091.69;5040132;28;45349;-58
2022/05/15 05:30:12;;;;;;;;;3.00;3.00;;;;;22.23;36.01;101087.16;5041485;28;45547;-58
2022/05/15 05:32:37;;;;;;;;;4.00;4.00;;;;;22.24;35.75;101098.59;5037476;28;46468;-58
2022/05/15 05:35:03;;;;;;;;;4.00;3.00;;;;;22.21;35.58;101099.59;5043114;28;45447;-58
2022/05/15 05:37:29;;;;;;;;;3.00;3.00;;;;;22.17;35.68;101095.47;5045350;28;45266;-59
2022/05/15 05:39:54;;;;;;;;;5.75;3.75;;;;;22.19;35.88;101098.00;5044179;28;45546;-58
2022/05/15 05:42:20;;;;;;;;;3.50;3.50;;;;;22.18;35.80;101104.22;5054388;28;46311;-57
2022/05/15 05:44:45;;;;;;;;;6.00;4.50;;;;;22.17;35.90;101092.81;5065614;28;44773;-58
2022/05/15 05:47:11;;;;;;;;;3.50;3.50;;;;;22.20;35.99;101099.72;5065025;28;44687;-57
2022/05/15 05:49:36;;;;;;;;;4.75;4.75;;;;;22.19;35.86;101098.88;5065436;28;44848;-58
2022/05/15 05:52:02;;;;;;;;;8.25;4.25;;;;;22.21;35.98;101091.69;5056896;28;46239;-58
2022/05/15 05:54:27;;;;;;;;;3.75;3.75;;;;;22.22;35.78;101092.56;5054018;28;44685;-58
2022/05/15 05:56:52;;;;;;;;;5.00;4.25;;;;;22.18;35.84;101091.88;5045462;28;45723;-58
2022/05/15 05:59:18;;;;;;;;;5.00;3.25;;;;;22.13;36.08;101086.00;5041777;28;45286;-58
2022/05/15 06:01:43;;;;;;;;;5.25;4.00;;;;;22.15;36.16;101089.41;5054215;28;45539;-58
2022/05/15 06:06:53;;;;;;;;;3.75;3.75;;;;;22.18;36.01;101077.81;5041652;28;45256;-56
2022/05/15 06:09:18;;;;;;;;;6.50;4.00;;;;;22.20;35.99;101083.88;5040506;28;45782;-58
2022/05/15 06:11:43;;;;;;;;;4.50;4.00;;;;;22.17;36.15;101076.97;5039232;28;45990;-57
2022/05/15 06:14:09;;;;;;;;;5.00;5.00;;;;;22.17;35.97;101076.13;5039474;28;45325;-59
2022/05/15 06:16:34;;;;;;;;;5.00;5.00;;;;;22.12;35.78;101086.94;5039496;28;45729;-56
2022/05/15 06:19:00;;;;;;;;;5.75;3.25;;;;;22.09;35.82;101095.06;5039602;28;45907;-58
2022/05/15 06:21:25;;;;;;;;;4.75;3.75;;;;;22.05;35.53;101094.38;5044879;28;45575;-57
2022/05/15 06:23:51;;;;;;;;;4.75;4.00;;;;;22.05;35.94;101088.25;5043109;28;45766;-58
2022/05/15 06:26:16;;;;;;;;;4.00;4.00;;;;;22.03;35.86;101088.34;5023861;28;45261;-58
2022/05/15 06:28:42;;;;;;;;;4.75;3.75;;;;;22.05;35.69;101090.91;5052053;28;45252;-57
2022/05/15 06:31:07;;;;;;;;;6.00;4.75;;;;;22.06;36.27;101082.03;5055665;28;45430;-58
2022/05/15 06:33:32;;;;;;;;;3.75;3.75;;;;;22.06;35.88;101082.88;5042867;28;45395;-58
2022/05/15 06:35:58;;;;;;;;;4.00;4.00;;;;;22.12;36.15;101084.31;5039196;28;46019;-59
2022/05/15 06:38:25;;;;;;;;;3.00;3.00;;;;;22.16;35.64;101087.66;5039915;28;45472;-58
2022/05/15 06:40:50;;;;;;;;;4.25;4.00;;;;;22.17;36.11;101086.69;5038215;28;47377;-59
2022/05/15 06:43:16;;;;;;;;;4.00;4.00;;;;;22.16;35.76;101091.13;5038456;28;45349;-59
2022/05/15 06:45:42;;;;;;;;;4.50;4.00;;;;;22.15;35.85;101104.41;5037639;28;45276;-58
2022/05/15 06:48:07;;;;;;;;;4.25;4.25;;;;;22.11;36.18;101098.44;5039032;28;45200;-58
2022/05/15 06:50:33;;;;;;;;;6.25;5.00;;;;;22.11;36.03;101101.09;5038099;28;46937;-58
2022/05/15 06:52:58;;;;;;;;;6.50;6.50;;;;;22.12;36.04;101104.59;5038225;28;45288;-58
2022/05/15 06:55:24;;;;;;;;;4.00;4.00;;;;;22.12;36.28;101097.50;5038098;28;45367;-60
2022/05/15 06:57:50;;;;;;;;;4.25;3.75;;;;;22.13;35.89;101093.94;5038503;28;45301;-60
2022/05/15 07:00:25;;;;;;;;;6.00;4.00;;;;;22.13;35.84;101093.94;5037826;28;45484;-59
2022/05/15 07:02:51;;;;;;;;;5.75;5.75;;;;;22.13;35.89;101085.19;5038779;28;45664;-59
2022/05/15 07:05:30;;;;;;;;;6.00;5.75;;;;;22.12;35.95;101081.66;5039363;28;45441;-58
2022/05/15 07:07:56;;;;;;;;;5.00;5.00;;;;;22.12;36.02;101076.38;5041914;28;45510;-60
2022/05/15 07:10:22;;;;;;;;;4.50;4.50;;;;;22.11;35.98;101069.41;5043311;28;47908;-60
2022/05/15 07:12:48;;;;;;;;;5.00;4.25;;;;;22.12;36.19;101080.84;5049655;28;45362;-59
2022/05/15 07:15:13;;;;;;;;;4.50;4.50;;;;;22.13;36.04;101061.41;5059243;28;44695;-59
2022/05/15 07:17:39;;;;;;;;;4.50;4.50;;;;;22.13;36.30;101062.25;5059519;28;45543;-59
2022/05/15 07:20:05;;;;;;;;;6.00;4.00;;;;;22.13;35.86;101056.97;5058044;28;45593;-59
2022/05/15 07:22:31;;;;;;;;;6.50;4.25;;;;;22.13;35.83;101050.84;5057039;28;45105;-59
2022/05/15 07:24:56;;;;;;;;;5.50;4.75;;;;;22.15;35.94;101054.25;5052505;28;44684;-59
2022/05/15 07:27:21;;;;;;;;;5.00;5.00;;;;;22.13;35.86;101049.06;5044231;28;45506;-59
2022/05/15 07:29:47;;;;;;;;;3.00;3.00;;;;;22.15;35.85;101047.19;5041717;28;45526;-58
2022/05/15 07:32:12;;;;;;;;;6.00;5.00;;;;;22.16;36.06;101046.25;5045192;28;45771;-58
2022/05/15 07:34:39;;;;;;;;;6.00;4.50;;;;;22.18;35.80;101044.38;5028079;28;45363;-58
2022/05/15 07:37:05;;;;;;;;;4.75;4.75;;;;;22.18;36.03;101036.44;5040977;28;45482;-59
2022/05/15 07:39:30;;;;;;;;;4.75;4.25;;;;;22.20;36.26;101037.22;5037396;28;47081;-59
2022/05/15 07:41:56;;;;;;;;;5.75;5.00;;;;;22.23;36.05;101046.72;5038038;28;45510;-59
2022/05/15 07:44:22;;;;;;;;;5.00;5.00;;;;;22.25;36.13;101042.22;5038023;28;45449;-59
2022/05/15 07:46:48;;;;;;;;;4.25;4.25;;;;;22.27;35.84;101042.13;5037483;28;45418;-59
2022/05/15 07:49:13;;;;;;;;;5.00;5.00;;;;;22.30;36.08;101039.31;5038140;28;47375;-60
2022/05/15 07:51:44;;;;;;;;;5.75;5.00;;;;;22.30;36.18;101026.94;5038014;28;45336;-58
2022/05/15 07:54:15;;;;;;;;;5.00;4.00;;;;;22.34;36.18;101024.94;5038003;28;45522;-59
2022/05/15 07:56:40;;;;;;;;;5.00;5.00;;;;;22.37;36.20;101024.78;5036742;28;45249;-59
2022/05/15 07:59:06;;;;;;;;;5.75;5.75;;;;;22.40;35.92;101021.97;5038234;28;46413;-59
2022/05/15 08:01:31;;;;;;;;;4.00;4.00;;;;;22.42;35.97;101017.47;5037559;28;45321;-59
2022/05/15 08:03:57;;;;;;;;;5.50;5.00;;;;;22.41;35.92;101018.41;5037605;28;45233;-60
2022/05/15 08:09:07;;;;;;;;;5.25;5.25;;;;;22.46;35.77;101013.69;5040126;28;45261;-59
2022/05/15 08:11:33;;;;;;;;;6.75;5.00;;;;;22.48;35.80;101003.88;5037360;28;46008;-59
2022/05/15 08:14:01;;;;;;;;;4.00;4.00;;;;;22.51;35.79;100993.13;5037561;28;45331;-58
2022/05/15 08:16:27;;;;;;;;;4.00;4.00;;;;;22.53;35.59;100993.03;5037985;28;45301;-58
2022/05/15 08:24:21;;;;;;;;;3.50;3.50;;;;;22.62;35.02;100978.41;5039180;28;45458;-59
2022/05/15 08:26:47;;;;;;;;;3.50;3.50;;;;;22.63;34.97;100980.13;5046402;28;44808;-58
2022/05/15 08:29:13;;;;;;;;;5.00;4.50;;;;;22.67;34.89;100976.31;5050147;28;45464;-58
2022/05/15 08:31:41;;;;;;;;;4.00;2.00;;;;;22.67;34.69;100974.53;5042551;28;45431;-58
2022/05/15 08:34:07;;;;;;;;;4.00;4.00;;;;;22.69;34.70;100966.50;5021454;28;45359;-59
2022/05/15 08:36:33;;;;;;;;;6.50;4.50;;;;;22.70;34.86;100977.00;5050477;28;45490;-59
2022/05/15 08:38:58;;;;;;;;;4.00;4.00;;;;;22.74;34.80;100974.16;5045948;28;45672;-59
2022/05/15 08:41:30;;;;;;;;;4.75;4.00;;;;;22.75;34.87;100968.78;5045615;28;45333;-60
2022/05/15 08:44:29;;;;;;;;;5.50;4.00;;;;;22.79;34.82;100970.28;5039460;28;45300;-58
2022/05/15 08:47:31;;;;;;;;;4.75;3.00;;;;;22.81;34.57;100970.19;5037981;28;45466;-58
2022/05/15 08:50:20;;;;;;;;;5.00;4.00;;;;;22.82;34.65;100959.50;5037055;28;46080;-58
2022/05/15 08:52:48;;;;;;;;;4.00;4.00;;;;;22.85;34.47;100959.34;5041617;28;45377;-60
2022/05/15 08:55:42;;;;;;;;;3.50;3.50;;;;;22.90;34.65;100963.47;5043208;28;45238;-59
2022/05/15 08:58:13;;;;;;;;;6.25;5.00;;;;;22.93;34.34;100955.34;5038252;28;45473;-59
2022/05/15 09:00:44;;;;;;;;;4.25;3.25;;;;;22.95;34.45;100958.75;5036623;28;45390;-59
2022/05/15 09:03:27;;;;;;;;;4.25;4.00;;;;;22.96;34.54;100955.16;5036496;28;45411;-59
2022/05/15 09:06:04;;;;;;;;;3.00;3.00;;;;;22.95;34.56;100948.16;5036747;28;45307;-59
2022/05/15 09:09:07;;;;;;;;;5.00;3.00;;;;;23.00;34.36;100951.34;5037278;28;45394;-59
2022/05/15 09:11:54;;;;;;;;;3.00;3.00;;;;;23.00;34.38;100948.69;5040071;28;47011;-57
2022/05/15 09:14:20;;;;;;;;;3.25;3.25;;;;;23.03;34.54;100956.44;5040267;28;45787;-57
2022/05/15 09:17:08;;;;;;;;;2.75;2.75;;;;;23.03;34.27;100956.44;5040560;28;45255;-57
2022/05/15 09:19:33;;;;;;;;;6.75;4.00;;;;;23.01;34.21;100942.47;5043990;28;45323;-57
2022/05/15 09:22:00;;;;;;;;;4.50;4.50;;;;;23.03;34.83;100939.75;5043562;28;46708;-57
2022/05/15 09:24:36;;;;;;;;;4.75;4.25;;;;;23.03;34.31;100945.88;5042230;28;45319;-57
2022/05/15 09:27:16;;;;;;;;;7.50;4.25;;;;;23.05;34.67;100951.06;5042308;28;45362;-57
2022/05/15 09:29:42;;;;;;;;;4.00;4.00;;;;;23.03;34.55;100945.88;5044179;28;45407;-58
2022/05/15 09:32:35;;;;;;;;;3.00;3.00;;;;;23.06;34.61;100944.81;5041593;28;46914;-58
2022/05/15 09:35:02;;;;;;;;;3.50;3.50;;;;;23.03;34.70;100924.72;5026445;28;45812;-57
2022/05/15 09:43:30;;;;;;;;;4.25;4.00;;;;;23.06;34.41;100934.25;5045736;28;45327;-58
2022/05/15 09:43:33;;;;;;;;;3.00;3.00;;;;;23.06;34.53;100936.88;5046706;28;45398;-56
2022/05/15 09:46:09;;;;;;;;;4.00;2.25;;;;;23.08;34.59;100935.00;5042231;28;45272;-57
2022/05/15 09:48:41;;;;;;;;;4.50;4.00;;;;;23.06;34.49;100924.53;5038942;28;45375;-56
2022/05/15 09:51:12;;;;;;;;;4.00;4.00;;;;;23.06;34.24;100927.19;5040051;28;45530;-57
2022/05/15 09:53:44;;;;;;;;;3.00;3.00;;;;;23.05;34.10;100921.97;5039434;28;46327;-57
2022/05/15 09:56:23;;;;;;;;;3.50;3.50;;;;;23.06;34.03;100929.81;5021820;28;45210;-56
2022/05/15 09:58:52;;;;;;;;;2.75;2.75;;;;;23.06;34.19;100913.97;5022616;28;45450;-57
2022/05/15 10:01:36;;;;;;;;;3.25;3.25;;;;;23.06;33.85;100908.69;5041514;28;45431;-56
2022/05/15 10:04:05;;;;;;;;;3.75;3.00;;;;;23.07;34.10;100905.09;5039502;28;45270;-58
2022/05/15 10:06:37;;;;;;;;;3.75;2.00;;;;;23.05;33.37;100906.13;5039851;28;45911;-57
2022/05/15 10:09:24;;;;;;;;;4.00;3.75;;;;;23.07;33.75;100907.72;5039778;28;45205;-56
2022/05/15 10:11:57;;;;;;;;;3.50;3.00;;;;;23.06;33.47;100898.09;5040047;28;45490;-56
2022/05/15 10:14:41;;;;;;;;;3.00;2.50;;;;;23.08;33.67;100893.56;5039499;28;46476;-57
2022/05/15 10:17:07;;;;;;;;;3.75;2.75;;;;;23.07;33.50;100883.06;5039263;28;45410;-56
2022/05/15 10:19:57;;;;;;;;;3.50;3.00;;;;;23.09;33.77;100892.63;5039788;28;45442;-56
2022/05/15 10:22:23;;;;;;;;;3.00;2.75;;;;;23.10;33.51;100885.53;5041291;28;45396;-57
2022/05/15 10:24:50;;;;;;;;;4.00;2.00;;;;;23.11;33.52;100881.94;5063339;28;45532;-57
2022/05/15 10:27:27;;;;;;;;;2.00;2.00;;;;;23.10;33.56;100878.44;5053176;28;45263;-57
2022/05/15 10:30:03;;;;;;;;;3.25;3.25;;;;;23.11;33.49;100877.47;5045011;28;45318;-57
2022/05/15 10:32:47;;;;;;;;;5.75;4.00;;;;;23.12;33.12;100879.19;5040682;28;45438;-56
2022/05/15 10:35:16;;;;;;;;;5.25;3.25;;;;;23.11;33.26;100871.34;5039212;28;45845;-56
2022/05/15 10:38:00;;;;;;;;;2.25;2.25;;;;;23.13;33.57;100875.59;5039615;28;45793;-56
2022/05/15 10:40:50;;;;;;;;;3.50;3.25;;;;;23.15;33.52;100871.06;5042912;28;45387;-57
2022/05/15 10:43:30;;;;;;;;;3.50;3.00;;;;;23.15;33.11;100863.13;5041974;28;45769;-56
2022/05/15 10:46:05;;;;;;;;;3.00;2.00;;;;;23.16;33.15;100871.88;5042086;28;46311;-56
2022/05/15 10:48:55;;;;;;;;;2.00;2.00;;;;;23.16;33.28;100856.88;5041851;28;45242;-56
2022/05/15 10:51:34;;;;;;;;;2.75;2.75;;;;;23.17;33.57;100863.88;5041944;28;45451;-56
2022/05/15 10:57:30;;;;;;;;;2.00;2.00;;;;;23.19;33.26;100849.72;5043259;28;45442;-56
2022/05/15 10:59:55;;;;;;;;;4.00;4.00;;;;;23.19;33.48;100860.28;5046111;28;45371;-58
2022/05/15 11:02:52;;;;;;;;;3.00;3.00;;;;;23.22;33.46;100854.81;5039921;28;45380;-57
2022/05/15 11:05:58;;;;;;;;;4.00;3.00;;;;;23.24;33.61;100844.97;5039032;28;45511;-57
2022/05/15 11:08:34;;;;;;;;;3.00;3.00;;;;;23.26;33.54;100845.72;4938580;28;45588;-56
2022/05/15 11:11:25;;;;;;;;;2.00;2.00;;;;;23.28;33.17;100839.38;5029144;28;45661;-57
2022/05/15 11:14:10;;;;;;;;;3.25;3.00;;;;;23.28;33.19;100834.09;5045086;28;45525;-57
2022/05/15 11:16:41;;;;;;;;;3.50;3.50;;;;;23.31;33.29;100835.69;5046673;28;45359;-56
2022/05/15 11:19:13;;;;;;;;;3.00;3.00;;;;;23.30;33.36;100837.47;5042160;28;46189;-56
2022/05/15 11:21:50;;;;;;;;;4.00;3.25;;;;;23.31;33.33;100833.88;5051064;28;45204;-57
2022/05/15 11:24:31;;;;;;;;;5.00;3.25;;;;;23.31;33.26;100820.66;5054282;28;45197;-57
2022/05/15 11:27:08;;;;;;;;;6.00;3.50;;;;;23.31;33.15;100818.03;5053643;28;45406;-57
2022/05/15 11:29:42;;;;;;;;;2.25;2.25;;;;;23.32;33.21;100818.84;5049840;28;45415;-57
2022/05/15 11:32:37;;;;;;;;;3.25;3.25;;;;;23.33;33.43;100817.06;5038749;28;45985;-56
2022/05/15 11:35:18;;;;;;;;;3.00;2.25;;;;;23.34;33.16;100822.25;5039186;28;45756;-56
2022/05/15 11:37:58;;;;;;;;;4.00;4.00;;;;;23.34;33.19;100819.59;5052366;28;45273;-57
2022/05/15 11:40:40;;;;;;;;;3.75;3.00;;;;;23.34;33.22;100813.47;5057797;28;45620;-56
2022/05/15 11:43:26;;;;;;;;;3.00;3.00;;;;;23.34;33.44;100816.97;5060895;28;45387;-57
2022/05/15 11:45:55;;;;;;;;;4.75;3.00;;;;;23.35;33.32;100808.06;5061766;28;44773;-56
2022/05/15 11:48:37;;;;;;;;;4.50;3.25;;;;;23.34;33.16;100803.75;5047565;28;45347;-56
2022/05/15 11:51:22;;;;;;;;;4.75;3.00;;;;;23.35;33.21;100791.38;5040182;28;45898;-58
2022/05/15 11:53:57;;;;;;;;;4.00;4.00;;;;;23.33;32.83;100799.41;5042834;28;45407;-56
2022/05/15 11:56:24;;;;;;;;;4.25;4.25;;;;;23.35;32.99;100802.78;5042661;28;45423;-58